createdAt,value
2023-03-08T00:02:46.128Z,99802.56
2023-03-08T00:07:55.588Z,99766.75
2023-03-08T00:12:59.564Z,99819.22
2023-03-08T00:18:02.211Z,99808.00
2023-03-08T00:23:06.633Z,99804.00
2023-03-08T00:28:09.909Z,99815.63
2023-03-08T00:33:14.753Z,99800.41
2023-03-08T00:38:21.460Z,99567.28
2023-03-08T00:43:24.378Z,99802.00
2023-03-08T00:48:27.982Z,99570.19
2023-03-08T00:53:32.255Z,99808.09
2023-03-08T00:58:35.108Z,99703.34
2023-03-08T01:03:38.955Z,99792.56
2023-03-08T01:08:43.342Z,99787.09
2023-03-08T01:13:46.047Z,99766.97
2023-03-08T01:18:49.022Z,99786.72
2023-03-08T01:23:53.421Z,99778.75
2023-03-08T01:28:59.402Z,99756.59
2023-03-08T01:34:03.627Z,99748.13
2023-03-08T01:39:08.773Z,99729.09
2023-03-08T01:44:16.685Z,99751.34
2023-03-08T01:49:23.033Z,99739.47
2023-03-08T01:54:30.786Z,99731.56
2023-03-08T01:59:34.455Z,99717.56
2023-03-08T02:04:37.725Z,99713.81
2023-03-08T02:09:45.320Z,99705.50
2023-03-08T02:14:48.878Z,99664.81
2023-03-08T02:19:56.202Z,99687.69
2023-03-08T02:25:00.919Z,99694.03
2023-03-08T02:30:03.971Z,99692.09
2023-03-08T02:35:08.019Z,99637.75
2023-03-08T02:40:13.723Z,99624.69
2023-03-08T02:45:16.597Z,99637.53
2023-03-08T02:50:19.356Z,99656.94
2023-03-08T02:55:23.568Z,99663.75
2023-03-08T03:00:26.504Z,99672.19
2023-03-08T03:05:31.623Z,99659.63
2023-03-08T03:15:41.429Z,99670.34
2023-03-08T03:20:44.414Z,99654.56
2023-03-08T03:25:48.428Z,99642.44
2023-03-08T03:30:53.996Z,99649.53
2023-03-08T03:35:56.711Z,99643.19
2023-03-08T03:41:05.638Z,99635.28
2023-03-08T03:46:13.261Z,99624.91
2023-03-08T03:51:20.097Z,99629.44
2023-03-08T03:56:29.136Z,99615.94
2023-03-08T04:01:35.690Z,99606.00
2023-03-08T04:07:04.599Z,99583.00
2023-03-08T04:12:14.249Z,99586.25
2023-03-08T04:17:17.135Z,99538.03
2023-03-08T04:22:24.971Z,99584.75
2023-03-08T04:27:31.991Z,99569.81
2023-03-08T04:32:40.461Z,99548.09
2023-03-08T04:37:45.620Z,99565.34
2023-03-08T04:42:50.512Z,99521.28
2023-03-08T04:47:58.399Z,99535.69
2023-03-08T04:53:01.331Z,99441.50
2023-03-08T04:58:06.284Z,99518.78
2023-03-08T05:03:09.064Z,99516.44
2023-03-08T05:08:12.032Z,99507.66
2023-03-08T05:13:17.515Z,99364.53
2023-03-08T05:18:20.951Z,99395.25
2023-03-08T05:23:24.773Z,99487.75
2023-03-08T05:28:31.209Z,99488.72
2023-03-08T05:33:35.042Z,99459.00
2023-03-08T05:38:41.315Z,98970.22
2023-03-08T05:43:47.972Z,99325.66
2023-03-08T05:48:51.098Z,99420.28
2023-03-08T05:54:00.538Z,99432.31
2023-03-08T05:59:05.675Z,99084.91
2023-03-08T06:04:15.961Z,99376.03
2023-03-08T06:09:22.499Z,99410.75
2023-03-08T06:14:27.684Z,99383.06
2023-03-08T06:19:32.312Z,99388.69
2023-03-08T06:24:35.461Z,99373.28
2023-03-08T06:29:45.751Z,99369.47
2023-03-08T06:35:14.014Z,99120.25
2023-03-08T06:40:28.161Z,99265.09
2023-03-08T06:45:38.592Z,99105.28
2023-03-08T06:50:42.278Z,99158.03
2023-03-08T06:55:45.754Z,99318.22
2023-03-08T07:00:52.751Z,99105.66
2023-03-08T07:06:02.863Z,99161.25
2023-03-08T07:11:06.697Z,99336.56
2023-03-08T07:16:12.830Z,99340.69
2023-03-08T07:21:15.777Z,99325.34
2023-03-08T07:26:20.638Z,99212.88
2023-03-08T07:31:28.979Z,99343.84
2023-03-08T07:42:41.033Z,99227.28
2023-03-08T07:48:04.096Z,99333.06
2023-03-08T07:53:07.797Z,99271.41
2023-03-08T07:58:10.969Z,99307.00
2023-03-08T08:03:17.262Z,99225.09
2023-03-08T08:08:20.219Z,99293.59
2023-03-08T08:13:28.704Z,99289.00
2023-03-08T08:18:32.886Z,99280.38
2023-03-08T08:23:39.800Z,99021.41
2023-03-08T08:28:44.086Z,99259.84
2023-03-08T08:33:48.573Z,99187.03
2023-03-08T08:38:57.053Z,99214.31
2023-03-08T08:44:01.834Z,99123.81
2023-03-08T08:49:06.600Z,99232.59
2023-03-08T08:54:11.744Z,99076.44
2023-03-08T08:59:16.587Z,98918.00
2023-03-08T09:04:22.275Z,99175.56
2023-03-08T09:09:26.801Z,98994.69
2023-03-08T09:14:29.888Z,99002.59
2023-03-08T09:19:36.394Z,99188.69
2023-03-08T09:24:39.398Z,98993.56
2023-03-08T09:29:42.198Z,99171.69
2023-03-08T09:34:46.797Z,99165.06
2023-03-08T09:39:52.127Z,99140.69
2023-03-08T09:45:09.350Z,98999.19
2023-03-08T09:50:29.040Z,99168.81
2023-03-08T09:55:34.545Z,99160.63
2023-03-08T10:00:43.366Z,99153.63
2023-03-08T10:05:55.279Z,99151.25
2023-03-08T10:11:04.201Z,99144.34
2023-03-08T10:16:17.615Z,98830.09
2023-03-08T10:21:25.564Z,99116.97
2023-03-08T10:26:29.445Z,99094.97
2023-03-08T10:31:34.363Z,99094.06
2023-03-08T10:36:48.953Z,99031.41
2023-03-08T10:41:55.265Z,99088.31
2023-03-08T10:47:00.625Z,98778.78
2023-03-08T10:52:09.651Z,99116.69
2023-03-08T10:57:23.414Z,99023.22
2023-03-08T11:02:26.182Z,99104.09
2023-03-08T11:07:32.874Z,99029.91
2023-03-08T11:12:35.739Z,99051.44
2023-03-08T11:17:45.510Z,98850.25
2023-03-08T11:23:16.821Z,99081.84
2023-03-08T11:28:49.192Z,99005.75
2023-03-08T11:34:17.734Z,99087.81
2023-03-08T11:39:28.858Z,99025.69
2023-03-08T11:44:45.263Z,99054.41
2023-03-08T11:50:13.170Z,98833.47
2023-03-08T11:55:36.584Z,98906.94
2023-03-08T12:00:42.539Z,99084.16
2023-03-08T12:05:54.644Z,99010.59
2023-03-08T12:11:06.726Z,99067.94
2023-03-08T12:16:16.997Z,99046.91
2023-03-08T12:21:28.898Z,98871.94
2023-03-08T12:26:37.441Z,98929.22
2023-03-08T12:31:44.545Z,99010.84
2023-03-08T12:36:47.533Z,98974.72
2023-03-08T12:42:01.242Z,99023.13
2023-03-08T12:47:20.450Z,99013.78
2023-03-08T12:52:33.241Z,98963.88
2023-03-08T12:57:42.819Z,99011.50
2023-03-08T13:02:45.809Z,98531.88
2023-03-08T13:08:03.489Z,98999.16
2023-03-08T13:13:39.037Z,98941.25
2023-03-08T13:18:43.060Z,98916.56
2023-03-08T13:24:11.988Z,98856.19
2023-03-08T13:29:23.557Z,99000.72
2023-03-08T13:34:29.844Z,98524.34
2023-03-08T13:39:41.704Z,98684.09
2023-03-08T13:44:49.305Z,98940.53
2023-03-08T13:49:56.733Z,98942.59
2023-03-08T13:55:07.608Z,98989.19
2023-03-08T14:07:26.170Z,98941.28
2023-03-08T14:12:31.767Z,98944.13
2023-03-08T14:17:36.834Z,98954.06
2023-03-08T14:22:41.069Z,98952.59
2023-03-08T14:27:45.218Z,98952.06
2023-03-08T14:33:01.763Z,98946.41
2023-03-08T14:38:14.299Z,98930.19
2023-03-08T14:43:19.899Z,98834.41
2023-03-08T14:48:25.953Z,98809.75
2023-03-08T14:53:32.786Z,98932.41
2023-03-08T14:58:38.987Z,98929.28
2023-03-08T15:03:41.619Z,98931.44
2023-03-08T15:08:45.843Z,98930.81
2023-03-08T15:13:49.067Z,98947.38
2023-03-08T15:18:52.072Z,98933.03
2023-03-08T15:23:56.687Z,98890.25
2023-03-08T15:29:03.047Z,98938.28
2023-03-08T15:34:05.924Z,98946.13
2023-03-08T15:39:12.566Z,98941.84
2023-03-08T15:44:15.627Z,98874.16
2023-03-08T15:49:18.185Z,98936.00
2023-03-08T15:54:22.091Z,98953.16
2023-03-08T15:59:24.674Z,98909.63
2023-03-08T16:04:27.730Z,98934.63
2023-03-08T16:09:31.692Z,98914.00
2023-03-08T16:14:34.302Z,98922.25
2023-03-08T16:19:37.067Z,98919.44
2023-03-08T16:24:42.307Z,98915.66
2023-03-08T16:29:46.895Z,98920.47
2023-03-08T16:34:50.971Z,98930.41
2023-03-08T16:39:57.440Z,98933.81
2023-03-08T16:45:04.891Z,98921.13
2023-03-08T16:50:10.932Z,98934.31
2023-03-08T16:55:15.790Z,98906.47
2023-03-08T17:00:20.124Z,98920.28
2023-03-08T17:05:24.212Z,98923.84
2023-03-08T17:10:28.333Z,98928.25
2023-03-08T17:15:31.093Z,98932.25
2023-03-08T17:20:33.657Z,98931.69
2023-03-08T17:25:41.161Z,98930.34
2023-03-08T17:30:44.449Z,98926.06
2023-03-08T17:35:47.162Z,98926.28
2023-03-08T17:40:51.145Z,98923.25
2023-03-08T17:46:00.654Z,98924.69
2023-03-08T17:51:04.045Z,98931.09
2023-03-08T17:56:09.792Z,98920.28
2023-03-08T18:01:15.920Z,98926.28
2023-03-08T18:06:20.593Z,98883.16
2023-03-08T18:11:24.962Z,98923.97
2023-03-08T18:16:27.826Z,98930.47
2023-03-08T18:21:32.670Z,98921.69
2023-03-08T18:26:36.695Z,98927.13
2023-03-08T18:31:40.492Z,98929.22
2023-03-08T18:36:43.188Z,98915.50
2023-03-08T18:41:48.217Z,98906.50
2023-03-08T18:46:51.012Z,98907.25
2023-03-08T18:51:53.886Z,98889.97
2023-03-08T18:56:59.249Z,98887.25
2023-03-08T19:02:02.396Z,98881.50
2023-03-08T19:07:05.293Z,98878.78
2023-03-08T19:12:10.145Z,98896.06
2023-03-08T19:17:14.057Z,98888.63
2023-03-08T19:22:17.749Z,98880.53
2023-03-08T19:27:22.315Z,98870.63
2023-03-08T19:32:24.917Z,98874.00
2023-03-08T19:37:27.467Z,98875.66
2023-03-08T19:42:31.418Z,98877.53
2023-03-08T19:47:34.625Z,98881.06
2023-03-08T19:52:37.350Z,98868.72
2023-03-08T19:57:41.929Z,98866.75
2023-03-08T20:02:46.719Z,98861.09
2023-03-08T20:07:49.321Z,98866.75
2023-03-08T20:12:53.382Z,98859.34
2023-03-08T20:17:57.012Z,98868.31
2023-03-08T20:22:59.662Z,98869.91
2023-03-08T20:28:03.802Z,98833.19
2023-03-08T20:33:06.524Z,98869.50
2023-03-08T20:38:09.291Z,98846.16
2023-03-08T20:43:13.186Z,98837.88
2023-03-08T20:48:15.745Z,98846.69
2023-03-08T20:53:18.534Z,98853.06
2023-03-08T20:58:23.085Z,98860.28
2023-03-08T21:03:25.788Z,98853.59
2023-03-08T21:08:28.379Z,98866.03
2023-03-08T21:13:32.312Z,98853.88
2023-03-08T21:18:35.145Z,98797.44
2023-03-08T21:23:37.751Z,98832.47
2023-03-08T21:28:41.677Z,98827.75
2023-03-08T21:33:44.250Z,98826.59
2023-03-08T21:38:51.960Z,98832.91
2023-03-08T21:43:56.164Z,98823.34
2023-03-08T21:48:58.926Z,98801.63
2023-03-08T21:54:02.053Z,98803.78
2023-03-08T21:59:06.367Z,98736.81
2023-03-08T22:04:08.971Z,98784.75
2023-03-08T22:09:11.965Z,98773.72
2023-03-08T22:14:15.876Z,98763.13
2023-03-08T22:19:18.483Z,98758.63
2023-03-08T22:24:21.014Z,98742.03
2023-03-08T22:29:24.915Z,98743.97
2023-03-08T22:34:27.464Z,98736.19
2023-03-08T22:39:30.078Z,98736.13
2023-03-08T22:44:34.100Z,98718.69
2023-03-08T22:49:36.710Z,98727.88
2023-03-08T22:54:39.333Z,98742.31
2023-03-08T22:59:45.285Z,98735.53
2023-03-08T23:04:47.919Z,98740.22
2023-03-08T23:09:50.583Z,98733.50
2023-03-08T23:14:54.461Z,98722.25
2023-03-08T23:19:58.138Z,98718.97
2023-03-08T23:25:00.704Z,98693.59
2023-03-08T23:30:05.217Z,98694.81
2023-03-08T23:35:08.370Z,98693.16
2023-03-08T23:40:14.350Z,98712.28
2023-03-08T23:45:21.284Z,98739.50
2023-03-08T23:50:24.257Z,98723.25
2023-03-08T23:55:26.801Z,98722.31
